createdAt,value
2022-08-12T00:00:09.218Z,16.00
2022-08-12T00:02:55.016Z,16.00
2022-08-12T00:06:01.794Z,15.90
2022-08-12T00:08:52.983Z,15.90
2022-08-12T00:11:39.832Z,15.90
2022-08-12T00:14:25.352Z,15.90
2022-08-12T00:17:11.576Z,15.90
2022-08-12T00:19:57.236Z,15.90
2022-08-12T00:22:43.274Z,15.90
2022-08-12T00:26:05.661Z,15.80
2022-08-12T00:28:35.545Z,15.80
2022-08-12T00:31:21.318Z,15.80
2022-08-12T00:34:06.889Z,15.70
2022-08-12T00:36:52.476Z,15.70
2022-08-12T00:39:38.783Z,15.60
2022-08-12T00:42:12.103Z,15.60
2022-08-12T00:44:42.454Z,15.50
2022-08-12T00:47:24.678Z,15.50
2022-08-12T00:49:55.141Z,15.50
2022-08-12T00:52:23.414Z,15.50
2022-08-12T00:54:59.038Z,15.50
2022-08-12T00:57:31.659Z,15.40
2022-08-12T01:00:11.157Z,15.40
2022-08-12T01:02:41.222Z,15.40
2022-08-12T01:05:32.373Z,15.30
2022-08-12T01:08:18.557Z,15.30
2022-08-12T01:11:06.187Z,15.40
2022-08-12T01:13:36.198Z,15.40
2022-08-12T01:16:06.213Z,15.40
2022-08-12T01:18:36.163Z,15.30
2022-08-12T01:21:09.236Z,15.40
2022-08-12T01:23:57.673Z,15.30
2022-08-12T01:26:25.313Z,15.30
2022-08-12T01:28:58.534Z,15.20
2022-08-12T01:31:27.130Z,15.30
2022-08-12T01:34:33.407Z,15.30
2022-08-12T01:36:57.890Z,15.20
2022-08-12T01:40:33.510Z,15.20
2022-08-12T01:43:08.811Z,15.10
2022-08-12T01:45:59.542Z,15.10
2022-08-12T01:48:35.150Z,15.10
2022-08-12T01:52:12.621Z,15.10
2022-08-12T01:54:14.046Z,15.20
2022-08-12T01:56:49.343Z,15.20
2022-08-12T01:59:43.950Z,15.10
2022-08-12T02:02:17.366Z,15.00
2022-08-12T02:05:23.325Z,15.00
2022-08-12T02:08:33.442Z,14.90
2022-08-12T02:11:22.739Z,14.80
2022-08-12T02:14:13.620Z,14.80
2022-08-12T02:17:02.387Z,14.80
2022-08-12T02:19:42.566Z,14.80
2022-08-12T02:22:31.416Z,14.80
2022-08-12T02:25:25.699Z,14.90
2022-08-12T02:27:55.467Z,14.90
2022-08-12T02:30:35.341Z,14.90
2022-08-12T02:33:10.694Z,14.80
2022-08-12T02:35:39.776Z,14.80
2022-08-12T02:38:09.498Z,14.80
2022-08-12T02:40:39.648Z,14.80
2022-08-12T02:43:19.954Z,14.90
2022-08-12T02:46:01.727Z,14.90
2022-08-12T02:48:35.733Z,14.90
2022-08-12T02:51:06.769Z,14.80
2022-08-12T02:53:35.860Z,14.90
2022-08-12T02:56:03.442Z,14.90
2022-08-12T02:58:35.639Z,14.80
2022-08-12T03:01:11.557Z,14.90
2022-08-12T03:03:41.429Z,15.00
2022-08-12T03:06:22.765Z,15.00
2022-08-12T03:08:54.599Z,14.90
2022-08-12T03:11:54.695Z,14.80
2022-08-12T03:14:25.332Z,14.80
2022-08-12T03:17:09.559Z,14.70
2022-08-12T03:20:10.609Z,14.60
2022-08-12T03:22:29.818Z,14.50
2022-08-12T03:25:02.079Z,14.50
2022-08-12T03:27:30.267Z,14.50
2022-08-12T03:29:58.459Z,14.50
2022-08-12T03:32:45.644Z,14.50
2022-08-12T03:35:38.362Z,14.40
2022-08-12T03:38:09.654Z,14.40
2022-08-12T03:41:24.091Z,14.40
2022-08-12T03:44:35.418Z,14.40
2022-08-12T03:47:32.506Z,14.40
2022-08-12T03:50:18.410Z,14.40
2022-08-12T03:53:03.962Z,14.40
2022-08-12T03:55:49.522Z,14.40
2022-08-12T03:58:35.406Z,14.30
2022-08-12T04:01:02.538Z,14.30
2022-08-12T04:03:49.005Z,14.30
2022-08-12T04:06:16.259Z,14.40
2022-08-12T04:09:01.323Z,14.40
2022-08-12T04:11:47.458Z,14.40
2022-08-12T04:14:20.808Z,14.50
2022-08-12T04:16:49.268Z,14.50
2022-08-12T04:19:17.672Z,14.60
2022-08-12T04:22:01.270Z,14.60
2022-08-12T04:24:35.353Z,14.80
2022-08-12T04:27:05.799Z,15.10
2022-08-12T04:30:17.182Z,15.40
2022-08-12T04:32:21.491Z,15.70
2022-08-12T04:34:48.606Z,16.00
2022-08-12T04:37:16.739Z,16.30
2022-08-12T04:39:45.996Z,16.70
2022-08-12T04:42:13.233Z,16.90
2022-08-12T04:44:40.422Z,17.00
2022-08-12T04:47:11.188Z,17.00
2022-08-12T04:49:39.650Z,17.00
2022-08-12T04:52:07.038Z,16.90
2022-08-12T04:54:34.798Z,16.90
2022-08-12T04:57:04.366Z,17.00
2022-08-12T04:59:47.193Z,17.10
2022-08-12T05:02:20.594Z,17.20
2022-08-12T05:04:52.154Z,17.40
2022-08-12T05:07:20.794Z,17.40
2022-08-12T05:10:00.962Z,17.50
2022-08-12T05:12:36.951Z,17.50
2022-08-12T05:15:18.952Z,17.80
2022-08-12T05:17:52.773Z,17.90
2022-08-12T05:20:22.769Z,17.90
2022-08-12T05:22:53.058Z,17.80
2022-08-12T05:25:25.136Z,17.70
2022-08-12T05:27:55.357Z,17.70
2022-08-12T05:30:29.592Z,17.60
2022-08-12T05:33:00.507Z,17.70
2022-08-12T05:35:28.140Z,17.90
2022-08-12T05:38:15.150Z,18.00
2022-08-12T05:40:42.275Z,18.10
2022-08-12T05:43:09.308Z,18.40
2022-08-12T05:45:39.227Z,18.60
2022-08-12T05:48:08.598Z,18.80
2022-08-12T05:50:35.776Z,19.00
2022-08-12T05:53:02.899Z,19.40
2022-08-12T05:55:31.531Z,19.70
2022-08-12T05:57:58.935Z,20.20
2022-08-12T06:00:26.925Z,20.50
2022-08-12T06:02:57.215Z,20.90
2022-08-12T06:05:24.282Z,21.10
2022-08-12T06:08:02.018Z,21.40
2022-08-12T06:10:33.465Z,21.60
2022-08-12T06:13:02.578Z,21.90
2022-08-12T06:15:30.502Z,22.20
2022-08-12T06:18:14.186Z,22.30
2022-08-12T06:20:43.994Z,22.40
2022-08-12T06:23:12.088Z,22.40
2022-08-12T06:25:39.187Z,22.30
2022-08-12T06:28:17.624Z,22.10
2022-08-12T06:30:57.315Z,22.60
2022-08-12T06:34:00.934Z,22.70
2022-08-12T06:36:29.432Z,22.30
2022-08-12T06:38:57.529Z,22.30
2022-08-12T06:42:02.746Z,22.70
2022-08-12T06:44:30.105Z,22.70
2022-08-12T06:46:58.388Z,22.50
2022-08-12T06:49:25.687Z,22.40
2022-08-12T06:51:56.822Z,22.30
2022-08-12T06:54:31.868Z,22.20
2022-08-12T06:57:05.399Z,21.80
2022-08-12T06:59:51.236Z,22.00
2022-08-12T07:02:22.732Z,22.10
2022-08-12T07:04:50.136Z,22.30
2022-08-12T07:07:18.568Z,22.60
2022-08-12T07:10:06.706Z,22.90
2022-08-12T07:12:32.651Z,23.30
2022-08-12T07:15:02.078Z,23.60
2022-08-12T07:17:37.702Z,23.50
2022-08-12T07:20:20.146Z,23.40
2022-08-12T07:23:03.216Z,23.70
2022-08-12T07:25:41.051Z,23.80
2022-08-12T07:28:24.960Z,24.00
2022-08-12T07:30:54.400Z,24.40
2022-08-12T07:33:26.647Z,24.30
2022-08-12T07:35:57.737Z,24.20
2022-08-12T07:38:40.357Z,24.00
2022-08-12T07:41:21.987Z,23.80
2022-08-12T07:43:53.139Z,23.70
2022-08-12T07:46:36.718Z,24.00
2022-08-12T07:49:08.513Z,24.30
2022-08-12T07:51:36.248Z,24.20
2022-08-12T07:54:09.393Z,24.60
2022-08-12T07:56:38.500Z,24.70
2022-08-12T07:59:08.688Z,24.80
2022-08-12T08:01:38.275Z,24.80
2022-08-12T08:04:25.639Z,24.80
2022-08-12T08:06:52.797Z,25.00
2022-08-12T08:09:22.432Z,25.40
2022-08-12T08:12:08.539Z,25.20
2022-08-12T08:14:35.704Z,24.90
2022-08-12T08:17:06.741Z,25.00
2022-08-12T08:20:02.069Z,25.00
2022-08-12T08:22:33.391Z,24.70
2022-08-12T08:25:34.690Z,25.00
2022-08-12T08:28:00.445Z,25.20
2022-08-12T08:30:29.027Z,25.10
2022-08-12T08:32:56.672Z,25.30
2022-08-12T08:35:25.153Z,25.30
2022-08-12T08:37:53.298Z,25.50
2022-08-12T08:40:55.548Z,25.60
2022-08-12T08:43:22.673Z,25.50
2022-08-12T08:45:49.774Z,25.70
2022-08-12T08:48:17.993Z,25.90
2022-08-12T08:50:45.511Z,26.10
2022-08-12T08:53:31.085Z,26.10
2022-08-12T08:56:05.084Z,26.30
2022-08-12T08:58:32.684Z,26.10
2022-08-12T09:01:00.845Z,26.20
2022-08-12T09:05:09.367Z,26.70
2022-08-12T09:06:17.147Z,26.40
2022-08-12T09:08:46.364Z,26.90
2022-08-12T09:12:06.889Z,27.10
2022-08-12T09:14:29.456Z,27.10
2022-08-12T09:16:56.638Z,27.40
2022-08-12T09:19:27.714Z,27.00
2022-08-12T09:21:55.461Z,26.90
2022-08-12T09:24:22.685Z,26.60
2022-08-12T09:26:54.754Z,26.70
2022-08-12T09:30:08.893Z,26.70
2022-08-12T09:32:29.334Z,26.60
2022-08-12T09:34:57.589Z,26.80
2022-08-12T09:37:26.866Z,26.30
2022-08-12T09:40:04.447Z,26.70
2022-08-12T09:43:17.506Z,26.90
2022-08-12T09:46:11.963Z,27.10
2022-08-12T09:48:39.959Z,27.40
2022-08-12T09:51:21.625Z,26.80
2022-08-12T09:54:08.952Z,26.90
2022-08-12T09:57:02.633Z,26.90
2022-08-12T10:00:15.757Z,26.90
2022-08-12T10:02:44.517Z,27.00
2022-08-12T10:05:02.273Z,27.10
2022-08-12T10:07:39.325Z,26.80
2022-08-12T10:10:24.920Z,26.70
2022-08-12T10:13:12.552Z,27.00
2022-08-12T10:16:02.601Z,27.20
2022-08-12T10:18:32.120Z,27.10
2022-08-12T10:20:59.497Z,27.00
2022-08-12T10:23:40.382Z,27.30
2022-08-12T10:26:37.944Z,27.20
2022-08-12T10:30:40.898Z,27.00
2022-08-12T10:32:44.946Z,27.00
2022-08-12T10:35:09.537Z,26.90
2022-08-12T10:38:36.464Z,27.00
2022-08-12T10:40:31.426Z,27.20
2022-08-12T10:43:18.186Z,27.30
2022-08-12T10:45:49.271Z,27.40
2022-08-12T10:48:27.034Z,27.70
2022-08-12T10:52:04.435Z,27.60
2022-08-12T10:54:00.321Z,27.90
2022-08-12T10:56:35.000Z,27.70
2022-08-12T10:59:10.807Z,27.90
2022-08-12T11:04:31.292Z,27.90
2022-08-12T11:04:41.434Z,27.70
2022-08-12T11:08:35.854Z,27.90
2022-08-12T11:10:02.432Z,28.20
2022-08-12T11:12:55.298Z,28.30
2022-08-12T11:15:33.295Z,28.30
2022-08-12T11:18:12.048Z,28.20
2022-08-12T11:20:45.395Z,28.20
2022-08-12T11:23:25.777Z,28.60
2022-08-12T11:26:05.461Z,28.80
2022-08-12T11:28:37.649Z,29.00
2022-08-12T11:31:12.099Z,28.60
2022-08-12T11:34:05.620Z,28.70
2022-08-12T11:36:30.788Z,28.90
2022-08-12T11:38:58.132Z,28.70
2022-08-12T11:41:31.131Z,28.60
2022-08-12T11:44:35.090Z,28.10
2022-08-12T11:46:53.329Z,27.90
2022-08-12T11:49:30.847Z,28.00
2022-08-12T11:52:03.124Z,28.30
2022-08-12T11:54:31.249Z,27.80
2022-08-12T11:57:02.719Z,28.00
2022-08-12T12:02:20.468Z,27.70
2022-08-12T12:04:52.771Z,27.50
2022-08-12T12:08:35.909Z,27.70
2022-08-12T12:10:18.258Z,27.70
2022-08-12T12:12:50.163Z,27.70
2022-08-12T12:15:25.310Z,27.40
2022-08-12T12:18:05.867Z,27.30
2022-08-12T12:20:34.805Z,27.40
2022-08-12T12:23:01.807Z,27.50
2022-08-12T12:25:59.458Z,27.50
2022-08-12T12:28:37.272Z,27.70
2022-08-12T12:31:04.080Z,27.80
2022-08-12T12:33:57.413Z,27.80
2022-08-12T12:36:24.020Z,27.70
2022-08-12T12:38:56.959Z,27.70
2022-08-12T12:42:40.619Z,27.60
2022-08-12T12:44:13.350Z,27.50
2022-08-12T12:46:54.757Z,27.60
2022-08-12T12:49:26.310Z,27.60
2022-08-12T12:52:18.384Z,27.80
2022-08-12T12:54:52.805Z,27.80
2022-08-12T12:57:21.600Z,27.60
2022-08-12T13:00:17.004Z,27.60
2022-08-12T13:02:55.593Z,27.40
2022-08-12T13:05:27.696Z,27.60
2022-08-12T13:08:00.810Z,27.80
2022-08-12T13:10:36.621Z,27.90
2022-08-12T13:14:08.069Z,28.00
2022-08-12T13:15:52.575Z,28.10
2022-08-12T13:18:19.875Z,28.10
2022-08-12T13:20:59.490Z,28.10
2022-08-12T13:23:36.182Z,28.20
2022-08-12T13:26:04.094Z,27.90
2022-08-12T13:28:31.909Z,27.90
2022-08-12T13:30:59.828Z,28.20
2022-08-12T13:33:28.508Z,28.10
2022-08-12T13:36:04.979Z,28.10
2022-08-12T13:38:44.951Z,27.90
2022-08-12T13:41:33.545Z,27.90
2022-08-12T13:44:02.097Z,27.80
2022-08-12T13:46:29.112Z,27.90
2022-08-12T13:48:57.521Z,27.90
2022-08-12T13:51:24.995Z,27.90
2022-08-12T13:54:11.662Z,27.80
2022-08-12T13:56:40.888Z,27.90
2022-08-12T13:59:08.771Z,28.10
2022-08-12T14:01:40.632Z,28.40
2022-08-12T14:04:12.400Z,28.40
2022-08-12T14:06:40.464Z,28.70
2022-08-12T14:09:17.261Z,28.50
2022-08-12T14:11:59.216Z,28.90
2022-08-12T14:14:31.387Z,29.20
2022-08-12T14:17:05.735Z,28.80
2022-08-12T14:19:45.132Z,29.20
2022-08-12T14:22:20.224Z,29.20
2022-08-12T14:24:47.284Z,28.70
2022-08-12T14:27:14.286Z,28.80
2022-08-12T14:30:15.496Z,28.80
2022-08-12T14:32:44.295Z,29.30
2022-08-12T14:35:12.366Z,29.00
2022-08-12T14:37:57.246Z,29.30
2022-08-12T14:40:29.832Z,29.40
2022-08-12T14:42:58.577Z,29.70
2022-08-12T14:45:45.015Z,29.40
2022-08-12T14:48:15.351Z,28.90
2022-08-12T14:52:07.940Z,29.00
2022-08-12T14:57:18.896Z,30.00
2022-08-12T14:59:26.673Z,30.00
2022-08-12T15:02:14.776Z,29.10
2022-08-12T15:04:42.161Z,28.60
2022-08-12T15:07:33.491Z,28.60
2022-08-12T15:10:01.573Z,28.70
2022-08-12T15:12:28.845Z,28.70
2022-08-12T15:14:59.906Z,28.80
2022-08-12T15:17:47.729Z,28.80
2022-08-12T15:20:32.918Z,28.70
2022-08-12T15:23:02.458Z,28.70
2022-08-12T15:25:30.653Z,28.20
2022-08-12T15:28:21.506Z,28.00
2022-08-12T15:30:52.334Z,27.80
2022-08-12T15:33:24.164Z,27.90
2022-08-12T15:35:53.813Z,28.20
2022-08-12T15:38:27.426Z,28.20
2022-08-12T15:40:56.549Z,28.10
2022-08-12T15:43:51.976Z,28.30
2022-08-12T15:46:25.546Z,28.20
2022-08-12T15:48:52.763Z,28.10
2022-08-12T15:51:57.371Z,28.00
2022-08-12T15:54:33.569Z,27.90
2022-08-12T15:57:08.330Z,27.80
2022-08-12T16:00:00.630Z,28.00
2022-08-12T16:02:26.916Z,27.90
2022-08-12T16:04:55.120Z,28.00
2022-08-12T16:07:25.898Z,28.10
2022-08-12T16:10:05.350Z,28.00
2022-08-12T16:12:39.693Z,28.20
2022-08-12T16:15:08.403Z,28.10
2022-08-12T16:18:14.468Z,28.00
2022-08-12T16:20:33.314Z,28.20
2022-08-12T16:23:26.689Z,28.10
2022-08-12T16:26:05.357Z,28.10
2022-08-12T16:28:33.645Z,28.10
2022-08-12T16:31:02.044Z,28.00
2022-08-12T16:33:58.678Z,27.80
2022-08-12T16:36:25.639Z,27.80
2022-08-12T16:38:53.041Z,27.70
2022-08-12T16:41:20.068Z,27.80
2022-08-12T16:43:47.823Z,27.60
2022-08-12T16:46:32.401Z,27.60
2022-08-12T16:49:08.932Z,27.60
2022-08-12T16:51:46.827Z,27.50
2022-08-12T16:54:19.179Z,27.50
2022-08-12T16:56:50.834Z,27.30
2022-08-12T16:59:53.495Z,27.20
2022-08-12T17:02:31.806Z,27.10
2022-08-12T17:05:05.130Z,27.00
2022-08-12T17:07:43.437Z,27.00
2022-08-12T17:10:18.568Z,26.90
2022-08-12T17:13:02.006Z,26.80
2022-08-12T17:15:57.916Z,26.70
2022-08-12T17:18:42.733Z,26.60
2022-08-12T17:21:17.556Z,26.50
2022-08-12T17:23:54.298Z,26.30
2022-08-12T17:26:31.122Z,26.20
2022-08-12T17:28:59.823Z,26.10
2022-08-12T17:31:59.941Z,26.00
2022-08-12T17:34:36.158Z,25.90
2022-08-12T17:37:06.456Z,25.80
2022-08-12T17:40:12.501Z,25.70
2022-08-12T17:42:34.655Z,25.50
2022-08-12T17:45:17.165Z,25.30
2022-08-12T17:48:04.701Z,25.20
2022-08-12T17:50:38.097Z,25.10
2022-08-12T17:53:08.133Z,25.00
2022-08-12T17:55:47.453Z,24.90
2022-08-12T17:58:21.638Z,24.80
2022-08-12T18:01:03.823Z,24.70
2022-08-12T18:03:58.233Z,24.60
2022-08-12T18:06:18.720Z,24.50
2022-08-12T18:08:58.792Z,24.50
2022-08-12T18:12:06.137Z,24.30
2022-08-12T18:14:36.887Z,24.30
2022-08-12T18:17:08.743Z,24.20
2022-08-12T18:20:05.022Z,24.10
2022-08-12T18:22:31.330Z,24.10
2022-08-12T18:25:06.343Z,24.00
2022-08-12T18:27:46.815Z,23.90
2022-08-12T18:30:20.513Z,23.90
2022-08-12T18:32:58.605Z,23.90
2022-08-12T18:35:29.950Z,23.90
2022-08-12T18:38:16.631Z,23.80
2022-08-12T18:41:06.120Z,23.80
2022-08-12T18:43:37.020Z,23.80
2022-08-12T18:46:29.990Z,23.70
2022-08-12T18:49:17.006Z,23.70
2022-08-12T18:51:55.605Z,23.70
2022-08-12T18:54:32.230Z,23.60
2022-08-12T18:57:02.234Z,23.60
2022-08-12T19:00:01.992Z,23.60
2022-08-12T19:02:21.685Z,23.60
2022-08-12T19:04:53.120Z,23.60
2022-08-12T19:07:29.778Z,23.50
2022-08-12T19:10:13.866Z,23.50
2022-08-12T19:13:01.214Z,23.70
2022-08-12T19:15:30.180Z,23.70
2022-08-12T19:18:02.374Z,23.70
2022-08-12T19:20:30.794Z,23.50
2022-08-12T19:23:02.419Z,23.00
2022-08-12T19:25:59.694Z,22.70
2022-08-12T19:28:29.570Z,22.30
2022-08-12T19:31:45.214Z,22.00
2022-08-12T19:37:38.653Z,21.40
2022-08-12T19:40:32.590Z,21.10
2022-08-12T19:43:17.886Z,20.90
2022-08-12T19:45:53.682Z,20.70
2022-08-12T19:48:22.863Z,20.60
2022-08-12T19:50:53.581Z,20.40
2022-08-12T19:53:27.403Z,20.30
2022-08-12T19:55:57.158Z,20.30
2022-08-12T19:58:25.335Z,20.10
2022-08-12T20:00:55.246Z,19.90
2022-08-12T20:03:39.492Z,19.90
2022-08-12T20:06:14.068Z,19.80
2022-08-12T20:08:48.880Z,19.70
2022-08-12T20:12:10.088Z,19.70
2022-08-12T20:14:07.577Z,19.70
2022-08-12T20:19:52.086Z,19.50
2022-08-12T20:22:24.270Z,19.50
2022-08-12T20:25:01.361Z,19.50
2022-08-12T20:28:03.075Z,19.50
2022-08-12T20:30:16.435Z,19.50
2022-08-12T20:32:57.401Z,19.40
2022-08-12T20:35:38.865Z,19.30
2022-08-12T20:38:26.975Z,19.30
2022-08-12T20:40:55.586Z,19.20
2022-08-12T20:43:24.190Z,19.20
2022-08-12T20:45:57.696Z,19.10
2022-08-12T20:48:29.365Z,19.10
2022-08-12T20:51:04.467Z,19.10
2022-08-12T20:53:57.869Z,19.10
2022-08-12T20:56:30.859Z,19.10
2022-08-12T20:59:00.150Z,19.00
2022-08-12T21:01:36.686Z,19.00
2022-08-12T21:04:35.323Z,18.90
2022-08-12T21:07:09.356Z,18.80
2022-08-12T21:09:48.524Z,18.80
2022-08-12T21:12:28.039Z,18.80
2022-08-12T21:15:24.073Z,18.70
2022-08-12T21:18:00.532Z,18.80
2022-08-12T21:20:34.887Z,18.70
2022-08-12T21:23:05.869Z,18.70
2022-08-12T21:25:44.199Z,18.70
2022-08-12T21:28:12.824Z,18.70
2022-08-12T21:31:11.722Z,18.60
2022-08-12T21:33:31.997Z,18.60
2022-08-12T21:36:22.318Z,18.60
2022-08-12T21:38:51.302Z,18.60
2022-08-12T21:41:20.356Z,18.50
2022-08-12T21:43:50.531Z,18.60
2022-08-12T21:46:34.601Z,18.60
2022-08-12T21:49:04.950Z,18.60
2022-08-12T21:51:49.104Z,18.60
2022-08-12T21:54:24.463Z,18.60
2022-08-12T21:56:54.251Z,18.50
2022-08-12T21:59:22.084Z,18.50
2022-08-12T22:01:49.849Z,18.50
2022-08-12T22:04:36.311Z,18.50
2022-08-12T22:07:04.550Z,18.60
2022-08-12T22:09:42.775Z,18.60
2022-08-12T22:12:29.082Z,18.60
2022-08-12T22:14:56.462Z,18.60
2022-08-12T22:17:49.497Z,18.70
2022-08-12T22:20:18.126Z,18.70
2022-08-12T22:22:56.668Z,18.70
2022-08-12T22:25:27.916Z,18.70
2022-08-12T22:28:13.568Z,18.60
2022-08-12T22:30:59.532Z,18.60
2022-08-12T22:33:26.541Z,18.50
2022-08-12T22:35:59.755Z,18.50
2022-08-12T22:38:29.431Z,18.40
2022-08-12T22:41:02.058Z,18.40
2022-08-12T22:44:00.295Z,18.40
2022-08-12T22:46:52.696Z,18.30
2022-08-12T22:49:53.455Z,18.30
2022-08-12T22:52:26.126Z,18.30
2022-08-12T22:55:03.646Z,18.30
2022-08-12T22:57:53.598Z,18.30
2022-08-12T23:00:23.940Z,18.30
2022-08-12T23:02:56.862Z,18.30
2022-08-12T23:05:56.669Z,18.20
2022-08-12T23:08:17.584Z,18.20
2022-08-12T23:10:46.524Z,18.20
2022-08-12T23:13:43.831Z,18.20
2022-08-12T23:16:28.116Z,18.30
2022-08-12T23:19:01.580Z,18.30
2022-08-12T23:22:05.649Z,18.30
2022-08-12T23:24:30.772Z,18.30
2022-08-12T23:27:18.214Z,18.20
2022-08-12T23:29:59.352Z,18.20
2022-08-12T23:32:35.623Z,18.20
2022-08-12T23:35:06.500Z,18.30
2022-08-12T23:37:47.186Z,18.40
2022-08-12T23:40:22.121Z,18.30
2022-08-12T23:42:50.085Z,18.30
2022-08-12T23:45:20.470Z,18.30
2022-08-12T23:47:58.566Z,18.30
2022-08-12T23:50:33.709Z,18.30
2022-08-12T23:53:22.460Z,18.30
2022-08-12T23:55:50.606Z,18.20
2022-08-12T23:58:23.310Z,18.20
